SBBESBFZ

Guest
Details From SBBE - Val De Caes Intl
To SBFZ - Pinto Martins
Flight Number -
Tags decoded
Created
Modified
Stats Distance 614 nm / 1,137 km
Max Altitude 0 ft / 0 m
Waypoints 3
Social Downloads 2
Likes 0
Share VATSIM

Download

Looking for another format? Having issues loading an existing format? Contact us
Advertisement - Login to hide

Notes

Requested: SBBE BE393 JANES SBFZ Unmatched points: BE393

Route

SBBE JANES SBFZ

ID Type Via Altitude Latitude Longitude Leg Dist Tot Dist Heading (true) Name
O SBBE APT - 0 ft / 0 m -1.38078˚ -48.47619˚ - 0 nm - Val De Caes Intl
JANES FIX - 0 ft / 0 m -1.56750˚ -47.83817˚ 39 nm 39 nm 106° / 106° -
O SBFZ APT - 0 ft / 0 m -3.77628˚ -38.53256˚ 573 nm 613 nm 104° / 103° Pinto Martins

Altitude Profile

Advertisement - Login to hide

Weather


0- 5 10 15 20 25 30 35+ Temperature / ° C

Clouds and Precipitation
Forecast for 2017-12-13 18:00 UTC. Updated 13 minutes ago

Ground ~20,000 ft ~40,000 ft Winds

SBBE

Details ICAO SBBE (BEL)
Name Val De Caes Intl
Region Brazil
Timezone America/Belem (UTC-3.0)
Stats Elevation 54 ft / 16 m (AMSL)
Location -1.380776° -48.476189°
Runways 2
Magnetic Variation 20.144° W

METAR

SBBE 131500Z 08006KT 9999 BKN025 30/24 Q1012

Decode

TAF

TAF TAF SBBE 131000Z 1312/1412 06007KT 9999 FEW015 TX32/1316Z TN24/1406Z BECMG 1313/1315 SCT030 BECMG 1317/1319 36010KT SCT035 FEW040TCU BECMG 1321/1323 06005KT FEW030 RMK PCQ

Decode

Departure Runways

ID Width Length Bearing (true) Bearing (mag) Surface Threshold Offset Overrun Length
02 148 ft / 45 m 6,023 ft / 1,836 m 4.48° 24.62° Asphalt 0 ft / 0 m 194 ft / 59 m
06 148 ft / 45 m 9,215 ft / 2,809 m 45.30° 65.44° Asphalt 0 ft / 0 m 0 ft / 0 m
20 148 ft / 45 m 6,023 ft / 1,836 m 184.48° 204.62° Asphalt 0 ft / 0 m 194 ft / 59 m
24 148 ft / 45 m 9,215 ft / 2,809 m 225.30° 245.44° Asphalt 0 ft / 0 m 197 ft / 60 m

SBFZ

Details ICAO SBFZ (FOR)
Name Pinto Martins
Region Brazil
Timezone America/Fortaleza (UTC-3.0)
Stats Elevation 82 ft / 25 m (AMSL)
Location -3.776283° -38.532556°
Runways 1
Magnetic Variation 21.126° W

METAR

SBFZ 131500Z 08015KT 9999 SCT030 31/22 Q1012

Decode

TAF

TAF SBFZ 131000Z 1312/1412 08012KT 9999 SCT020 TX31/1314Z TN26/1408Z BECMG 1319/1321 07007KT RMK PEA

Decode

Destination Runways

ID Width Length Bearing (true) Bearing (mag) Surface Threshold Offset Overrun Length
13 148 ft / 45 m 8,360 ft / 2,548 m 104.88° 126.01° Asphalt 0 ft / 0 m 195 ft / 59 m
31 148 ft / 45 m 8,360 ft / 2,548 m 284.88° 306.01° Asphalt 0 ft / 0 m 125 ft / 38 m

Approach Navaids

Runway Type Ident Frequency Range Bearing (true) Bearing (mag) Slope Elevation
13 Localiser IFZ 109.30 MHz 18 nm / 33 km 105.09° 126.22° - 82 ft / 25 m (AMSL)
13 Glidescope IFZ 109.30 MHz 10 nm / 19 km 104.88° 126.01° 3.00° 82 ft / 25 m (AMSL)
13 DME IFZ 109.30 MHz 18 nm / 33 km - - - 82 ft / 25 m (AMSL)

Popular Alternatives